Time;durP1;ratioP1;P1;durP2;ratioP2;P2;SDS_P1;SDS_P2;PMS_P1;PMS_P2;Temp;Humidity;BMP_temperature;BMP_pressure;BME280_temperature;BME280_humidity;BME280_pressure;Samples;Min_cycle;Max_cycle;Signal;HPM_P1;HPM_P2
2022/06/25 00:00:30;;;;;;;;;;;16.50;99.90;;;;;;5065788;28;19952;-70
2022/06/25 00:02:57;;;;;;;;;;;16.60;99.90;;;;;;5065303;28;19987;-70
2022/06/25 00:05:29;;;;;;;;;;;16.60;99.90;;;;;;5065452;28;19992;-70
2022/06/25 00:07:56;;;;;;;;;;;16.50;99.90;;;;;;5065699;28;19921;-70
2022/06/25 00:10:24;;;;;;;;;;;16.50;99.90;;;;;;5065561;28;19959;-70
2022/06/25 00:12:51;;;;;;;;;;;16.60;99.90;;;;;;5065025;28;19992;-70
2022/06/25 00:15:18;;;;;;;;;;;16.50;99.90;;;;;;5065520;28;19921;-70
2022/06/25 00:17:45;;;;;;;;;;;16.60;99.90;;;;;;5065220;28;19935;-70
2022/06/25 00:20:12;;;;;;;;;;;16.50;99.90;;;;;;5064842;28;19963;-71
2022/06/25 00:22:38;;;;;;;;;;;16.60;99.90;;;;;;5064754;28;19921;-71
2022/06/25 00:25:05;;;;;;;;;;;16.60;99.90;;;;;;5064863;28;20200;-70
2022/06/25 00:27:33;;;;;;;;;;;16.60;99.90;;;;;;5064984;28;19984;-70
2022/06/25 00:30:00;;;;;;;;;;;16.60;99.90;;;;;;5065031;28;20263;-71
2022/06/25 00:32:27;;;;;;;;;;;16.60;99.90;;;;;;5064903;28;19979;-70
2022/06/25 00:34:53;;;;;;;;;;;16.60;99.90;;;;;;5064963;28;19964;-71
2022/06/25 00:37:20;;;;;;;;;;;16.60;99.90;;;;;;5065147;28;19928;-70
2022/06/25 00:39:47;;;;;;;;;;;16.60;99.90;;;;;;5063923;28;20278;-71
2022/06/25 00:42:14;;;;;;;;;;;16.60;99.90;;;;;;5064119;28;20262;-70
2022/06/25 00:44:42;;;;;;;;;;;16.60;99.90;;;;;;5064868;28;20254;-70
2022/06/25 00:47:10;;;;;;;;;;;16.60;99.90;;;;;;5064692;28;19963;-70
2022/06/25 00:49:37;;;;;;;;;;;16.60;99.90;;;;;;5064123;28;19933;-70
2022/06/25 00:52:07;;;;;;;;;;;16.60;99.90;;;;;;5064884;28;19988;-70
2022/06/25 00:54:36;;;;;;;;;;;16.60;99.90;;;;;;5064463;28;19956;-70
2022/06/25 00:57:05;;;;;;;;;;;16.60;99.90;;;;;;5064642;28;19956;-70
2022/06/25 00:59:34;;;;;;;;;;;16.60;99.90;;;;;;5064357;28;20208;-71
2022/06/25 01:02:02;;;;;;;;;;;16.60;99.90;;;;;;5064360;28;19963;-70
2022/06/25 01:04:30;;;;;;;;;;;16.60;99.90;;;;;;5063973;28;19959;-70
2022/06/25 01:06:56;;;;;;;;;;;16.60;99.90;;;;;;5064566;28;19960;-70
2022/06/25 01:09:23;;;;;;;;;;;16.70;99.90;;;;;;5064446;28;19956;-70
2022/06/25 01:11:50;;;;;;;;;;;16.70;99.90;;;;;;5064162;28;20275;-70
2022/06/25 01:14:16;;;;;;;;;;;16.70;99.90;;;;;;5064095;28;19963;-71
2022/06/25 01:16:43;;;;;;;;;;;16.60;99.90;;;;;;5063999;28;19956;-70
2022/06/25 01:19:12;;;;;;;;;;;16.60;99.90;;;;;;5063985;28;19921;-71
2022/06/25 01:21:40;;;;;;;;;;;16.60;99.90;;;;;;5063960;28;19927;-71
2022/06/25 01:24:08;;;;;;;;;;;16.60;99.90;;;;;;5063796;28;19974;-70
2022/06/25 01:26:35;;;;;;;;;;;16.60;99.90;;;;;;5064057;28;19987;-70
2022/06/25 01:29:03;;;;;;;;;;;16.60;99.90;;;;;;5063585;28;19925;-71
2022/06/25 01:31:29;;;;;;;;;;;16.60;99.90;;;;;;5063558;28;20224;-71
2022/06/25 01:33:56;;;;;;;;;;;16.70;99.90;;;;;;5063203;28;19960;-70
2022/06/25 01:36:23;;;;;;;;;;;16.60;99.90;;;;;;5063709;28;19952;-70
2022/06/25 01:38:50;;;;;;;;;;;16.60;99.90;;;;;;5063805;28;19958;-70
2022/06/25 01:41:18;;;;;;;;;;;16.70;99.90;;;;;;5043639;28;19967;-70
2022/06/25 01:43:45;;;;;;;;;;;16.70;99.90;;;;;;5053823;28;19952;-70
2022/06/25 01:46:12;;;;;;;;;;;16.60;99.90;;;;;;5063806;28;19963;-70
2022/06/25 01:48:38;;;;;;;;;;;16.70;99.90;;;;;;5063645;28;19925;-70
2022/06/25 01:51:05;;;;;;;;;;;16.70;99.90;;;;;;5063440;28;19948;-70
2022/06/25 01:53:32;;;;;;;;;;;16.70;99.90;;;;;;5063638;28;19952;-70
2022/06/25 01:55:58;;;;;;;;;;;16.70;99.90;;;;;;5063479;28;20224;-70
2022/06/25 01:58:26;;;;;;;;;;;16.70;99.90;;;;;;5063109;28;20176;-70
2022/06/25 02:00:53;;;;;;;;;;;16.70;99.90;;;;;;5063729;28;19984;-70
2022/06/25 02:03:20;;;;;;;;;;;16.70;99.90;;;;;;5063443;28;19956;-70
2022/06/25 02:05:58;;;;;;;;;;;16.80;99.90;;;;;;5063185;28;19928;-69
2022/06/25 02:08:26;;;;;;;;;;;16.70;99.90;;;;;;5063379;28;20060;-70
2022/06/25 02:10:53;;;;;;;;;;;16.70;99.90;;;;;;5063083;28;19952;-70
2022/06/25 02:13:20;;;;;;;;;;;16.60;99.90;;;;;;5063032;28;19921;-71
2022/06/25 02:15:48;;;;;;;;;;;16.60;99.90;;;;;;5063528;28;20115;-70
2022/06/25 02:18:15;;;;;;;;;;;16.60;99.90;;;;;;5063087;28;19920;-70
2022/06/25 02:20:42;;;;;;;;;;;16.60;99.90;;;;;;5062951;28;19920;-70
2022/06/25 02:23:09;;;;;;;;;;;16.60;99.90;;;;;;5062765;28;19927;-69
2022/06/25 02:25:36;;;;;;;;;;;16.70;99.90;;;;;;5062863;28;19971;-70
2022/06/25 02:28:03;;;;;;;;;;;16.60;99.90;;;;;;5077022;23;19947;-69
2022/06/25 02:30:29;;;;;;;;;;;16.70;99.90;;;;;;5083320;28;19958;-68
2022/06/25 02:32:57;;;;;;;;;;;16.60;99.90;;;;;;5082985;28;19956;-68
2022/06/25 02:35:24;;;;;;;;;;;16.60;99.90;;;;;;5083059;28;19987;-69
2022/06/25 02:37:52;;;;;;;;;;;16.70;99.90;;;;;;5083024;28;20188;-69
2022/06/25 02:40:19;;;;;;;;;;;16.60;99.90;;;;;;5065281;28;19921;-69
2022/06/25 02:42:45;;;;;;;;;;;16.70;99.90;;;;;;5062955;28;20223;-69
2022/06/25 02:45:12;;;;;;;;;;;16.60;99.90;;;;;;5067144;28;19988;-69
2022/06/25 02:47:39;;;;;;;;;;;16.60;99.90;;;;;;5067859;28;20171;-69
2022/06/25 02:50:08;;;;;;;;;;;16.60;99.90;;;;;;5067507;28;19920;-69
2022/06/25 02:52:34;;;;;;;;;;;16.50;99.90;;;;;;5066451;28;19925;-69
2022/06/25 02:55:01;;;;;;;;;;;16.50;99.90;;;;;;5067122;28;19948;-69
2022/06/25 03:00:13;;;;;;;;;;;16.50;99.90;;;;;;5066857;28;19923;-68
2022/06/25 03:02:40;;;;;;;;;;;16.50;99.90;;;;;;5066636;28;19925;-68
2022/06/25 03:05:08;;;;;;;;;;;16.50;99.90;;;;;;5066419;28;19988;-69
2022/06/25 03:07:35;;;;;;;;;;;16.50;99.90;;;;;;5066463;28;19921;-69
2022/06/25 03:10:01;;;;;;;;;;;16.50;99.90;;;;;;5067140;28;19967;-69
2022/06/25 03:12:28;;;;;;;;;;;16.40;99.90;;;;;;5066507;28;19920;-69
2022/06/25 03:14:55;;;;;;;;;;;16.40;99.90;;;;;;5066527;28;19921;-69
2022/06/25 03:17:21;;;;;;;;;;;16.40;99.90;;;;;;5066142;28;19959;-69
2022/06/25 03:19:48;;;;;;;;;;;16.40;99.90;;;;;;5066368;28;19960;-69
2022/06/25 03:22:16;;;;;;;;;;;16.30;99.90;;;;;;5066227;28;19988;-69
2022/06/25 03:24:43;;;;;;;;;;;16.30;99.90;;;;;;5066307;28;20148;-69
2022/06/25 03:27:10;;;;;;;;;;;16.30;99.90;;;;;;5066166;28;20188;-69
2022/06/25 03:29:36;;;;;;;;;;;16.30;99.90;;;;;;5066051;28;20246;-69
2022/06/25 03:32:03;;;;;;;;;;;16.30;99.90;;;;;;5083289;28;19926;-69
2022/06/25 03:34:30;;;;;;;;;;;16.30;99.90;;;;;;5086023;28;19962;-69
2022/06/25 03:36:57;;;;;;;;;;;16.30;99.90;;;;;;5081367;28;19921;-69
2022/06/25 03:39:25;;;;;;;;;;;16.20;99.90;;;;;;5066103;28;20151;-69
2022/06/25 03:41:51;;;;;;;;;;;16.30;99.90;;;;;;5065946;28;19980;-69
2022/06/25 03:44:18;;;;;;;;;;;16.30;99.90;;;;;;5067215;28;19984;-69
2022/06/25 03:46:45;;;;;;;;;;;16.20;99.90;;;;;;5085859;28;20130;-69
2022/06/25 03:49:11;;;;;;;;;;;16.20;99.90;;;;;;5065849;28;19921;-69
2022/06/25 03:51:38;;;;;;;;;;;16.20;99.90;;;;;;5065985;28;19963;-69
2022/06/25 03:54:05;;;;;;;;;;;16.20;99.90;;;;;;5065809;28;19956;-69
2022/06/25 03:56:33;;;;;;;;;;;16.10;99.90;;;;;;5064922;28;19927;-69
2022/06/25 03:58:59;;;;;;;;;;;16.10;99.90;;;;;;5065929;28;19963;-69
2022/06/25 04:01:27;;;;;;;;;;;16.10;99.90;;;;;;5065460;28;19964;-69
2022/06/25 04:03:54;;;;;;;;;;;16.10;99.90;;;;;;5065140;28;20139;-69
2022/06/25 04:06:21;;;;;;;;;;;16.10;99.90;;;;;;5065547;28;19975;-69
2022/06/25 04:08:47;;;;;;;;;;;16.10;99.90;;;;;;5065598;28;19975;-69
2022/06/25 04:11:14;;;;;;;;;;;16.10;99.90;;;;;;5065510;28;19988;-69
2022/06/25 04:13:42;;;;;;;;;;;16.10;99.90;;;;;;5077366;28;19959;-68
2022/06/25 04:16:09;;;;;;;;;;;16.10;99.90;;;;;;5083621;28;19963;-69
2022/06/25 04:18:36;;;;;;;;;;;16.10;99.90;;;;;;5064062;28;20284;-69
2022/06/25 04:21:03;;;;;;;;;;;16.10;99.90;;;;;;5065328;28;19920;-68
2022/06/25 04:23:30;;;;;;;;;;;16.10;99.90;;;;;;5064727;28;20246;-69
2022/06/25 04:25:56;;;;;;;;;;;16.10;99.90;;;;;;5065291;28;19920;-69
2022/06/25 04:31:09;;;;;;;;;;;16.20;99.90;;;;;;5077984;28;20147;-69
2022/06/25 04:33:35;;;;;;;;;;;16.20;99.90;;;;;;5064731;28;20223;-69
2022/06/25 04:36:02;;;;;;;;;;;16.30;99.90;;;;;;5064745;28;19921;-69
2022/06/25 04:38:28;;;;;;;;;;;16.40;99.90;;;;;;5065281;28;19952;-69
2022/06/25 04:40:55;;;;;;;;;;;16.40;99.90;;;;;;5080115;28;19928;-69
2022/06/25 04:43:23;;;;;;;;;;;16.50;99.90;;;;;;5077990;28;19996;-68
2022/06/25 04:45:50;;;;;;;;;;;16.60;99.90;;;;;;5064398;28;19982;-69
2022/06/25 04:48:18;;;;;;;;;;;16.60;99.90;;;;;;5064420;28;19956;-69
2022/06/25 04:50:45;;;;;;;;;;;16.70;99.90;;;;;;5064609;28;19956;-69
2022/06/25 04:53:11;;;;;;;;;;;16.80;99.90;;;;;;5078766;28;19928;-69
2022/06/25 04:55:38;;;;;;;;;;;16.90;99.90;;;;;;5084469;28;20200;-69
2022/06/25 04:58:06;;;;;;;;;;;17.00;99.90;;;;;;5084497;28;19921;-70
2022/06/25 05:00:32;;;;;;;;;;;17.10;99.90;;;;;;5084783;28;20171;-69
2022/06/25 05:02:59;;;;;;;;;;;17.20;99.90;;;;;;5070910;28;19956;-69
2022/06/25 05:05:27;;;;;;;;;;;17.30;99.90;;;;;;5080370;28;19952;-69
2022/06/25 05:07:54;;;;;;;;;;;17.40;99.90;;;;;;5084132;28;19977;-69
2022/06/25 05:10:20;;;;;;;;;;;17.50;99.90;;;;;;5084526;28;19927;-69
2022/06/25 05:15:31;;;;;;;;;;;17.70;99.90;;;;;;5077327;28;19924;-69
2022/06/25 05:17:58;;;;;;;;;;;17.80;99.90;;;;;;5069260;28;19958;-67
2022/06/25 05:20:24;;;;;;;;;;;17.90;99.90;;;;;;5084011;28;19946;-69
2022/06/25 05:22:52;;;;;;;;;;;17.90;99.90;;;;;;5083720;28;20242;-69
2022/06/25 05:25:19;;;;;;;;;;;18.00;99.90;;;;;;5083893;28;19948;-69
2022/06/25 05:27:46;;;;;;;;;;;18.00;99.90;;;;;;5083876;28;19984;-69
2022/06/25 05:30:12;;;;;;;;;;;18.00;99.90;;;;;;5082978;28;19966;-69
2022/06/25 05:32:39;;;;;;;;;;;18.00;99.90;;;;;;5083877;28;19924;-69
2022/06/25 05:35:06;;;;;;;;;;;18.00;99.90;;;;;;5064461;28;19955;-69
2022/06/25 05:37:33;;;;;;;;;;;18.10;99.90;;;;;;5063993;28;19956;-69
2022/06/25 05:40:01;;;;;;;;;;;18.20;99.90;;;;;;5063930;28;20239;-70
2022/06/25 05:42:28;;;;;;;;;;;18.20;99.90;;;;;;5063737;28;19927;-69
2022/06/25 05:44:55;;;;;;;;;;;18.30;99.90;;;;;;5064047;28;19921;-69
2022/06/25 05:47:22;;;;;;;;;;;18.40;99.90;;;;;;5063461;28;19952;-68
2022/06/25 05:49:48;;;;;;;;;;;18.40;99.90;;;;;;5083649;28;19967;-68
2022/06/25 05:52:17;;;;;;;;;;;18.50;99.90;;;;;;5071815;28;19983;-67
2022/06/25 05:54:44;;;;;;;;;;;18.60;99.90;;;;;;5070635;28;19927;-68
2022/06/25 05:57:12;;;;;;;;;;;18.70;99.90;;;;;;5063113;28;19960;-67
2022/06/25 05:59:38;;;;;;;;;;;18.70;99.90;;;;;;5063861;28;19921;-69
2022/06/25 06:02:05;;;;;;;;;;;18.70;99.90;;;;;;5063763;28;19955;-69
2022/06/25 06:04:32;;;;;;;;;;;18.70;99.90;;;;;;5063467;28;19940;-68
2022/06/25 06:06:59;;;;;;;;;;;18.70;99.90;;;;;;5063318;28;19956;-68
2022/06/25 06:09:27;;;;;;;;;;;18.60;99.90;;;;;;5063331;28;19921;-68
2022/06/25 06:11:55;;;;;;;;;;;18.60;99.90;;;;;;5062850;28;19927;-69
2022/06/25 06:14:23;;;;;;;;;;;18.50;99.90;;;;;;5063419;28;19928;-67
2022/06/25 06:16:50;;;;;;;;;;;18.50;99.90;;;;;;5063276;28;20000;-68
2022/06/25 06:19:17;;;;;;;;;;;18.50;99.90;;;;;;5063169;28;19952;-69
2022/06/25 06:21:43;;;;;;;;;;;18.50;99.90;;;;;;5063494;28;19963;-68
2022/06/25 06:24:10;;;;;;;;;;;18.50;99.90;;;;;;5063196;28;19987;-68
2022/06/25 06:26:37;;;;;;;;;;;18.60;99.90;;;;;;5070177;28;20234;-68
2022/06/25 06:29:04;;;;;;;;;;;18.70;99.90;;;;;;5062759;28;19920;-70
2022/06/25 06:31:32;;;;;;;;;;;18.80;99.90;;;;;;5068970;28;20046;-67
2022/06/25 06:33:58;;;;;;;;;;;18.90;99.90;;;;;;5062146;28;20044;-68
2022/06/25 06:36:26;;;;;;;;;;;19.00;99.90;;;;;;5061114;28;19927;-71
2022/06/25 06:38:53;;;;;;;;;;;19.00;99.90;;;;;;5059676;28;19959;-70
2022/06/25 06:41:19;;;;;;;;;;;19.00;99.90;;;;;;5052280;28;19920;-71
2022/06/25 06:43:46;;;;;;;;;;;19.10;99.90;;;;;;5062407;28;19996;-71
2022/06/25 06:46:13;;;;;;;;;;;19.00;99.90;;;;;;5063135;28;19928;-71
2022/06/25 06:48:41;;;;;;;;;;;19.10;99.90;;;;;;5062643;28;19992;-71
2022/06/25 06:51:08;;;;;;;;;;;19.10;99.90;;;;;;5062901;28;19952;-71
2022/06/25 06:53:35;;;;;;;;;;;19.10;99.90;;;;;;5062853;28;19920;-71
2022/06/25 06:56:02;;;;;;;;;;;19.20;99.90;;;;;;5062957;28;20200;-71
2022/06/25 06:58:29;;;;;;;;;;;19.20;99.90;;;;;;5062697;28;19992;-71
2022/06/25 07:00:56;;;;;;;;;;;19.20;99.90;;;;;;5063020;28;19921;-70
2022/06/25 07:03:22;;;;;;;;;;;19.20;99.90;;;;;;5062848;28;19970;-71
2022/06/25 07:05:50;;;;;;;;;;;19.30;99.90;;;;;;5062896;28;20159;-71
2022/06/25 07:08:17;;;;;;;;;;;19.30;99.90;;;;;;5062860;28;20224;-71
2022/06/25 07:10:44;;;;;;;;;;;19.40;99.90;;;;;;5062784;28;19955;-71
2022/06/25 07:13:10;;;;;;;;;;;19.40;99.90;;;;;;5062446;28;19928;-71
2022/06/25 07:15:37;;;;;;;;;;;19.30;99.90;;;;;;5063047;28;19920;-71
2022/06/25 07:18:04;;;;;;;;;;;19.40;99.90;;;;;;5062829;28;19928;-71
2022/06/25 07:20:31;;;;;;;;;;;19.40;99.90;;;;;;5062822;28;19955;-71
2022/06/25 07:22:59;;;;;;;;;;;19.40;99.90;;;;;;5062429;28;20227;-71
2022/06/25 07:25:26;;;;;;;;;;;19.40;99.90;;;;;;5062505;28;19924;-71
2022/06/25 07:27:52;;;;;;;;;;;19.40;99.90;;;;;;5062630;28;20220;-71
2022/06/25 07:30:19;;;;;;;;;;;19.30;99.90;;;;;;5063145;28;19921;-71
2022/06/25 07:32:45;;;;;;;;;;;19.40;99.90;;;;;;5066030;28;19963;-71
2022/06/25 07:35:12;;;;;;;;;;;19.40;99.90;;;;;;5065993;28;19920;-71
2022/06/25 07:37:41;;;;;;;;;;;19.40;99.90;;;;;;5065436;28;20247;-71
2022/06/25 07:40:10;;;;;;;;;;;19.50;99.90;;;;;;5065145;28;19936;-71
2022/06/25 07:42:36;;;;;;;;;;;19.60;99.90;;;;;;5065858;28;19956;-71
2022/06/25 07:45:04;;;;;;;;;;;19.70;99.90;;;;;;5065855;28;19963;-71
2022/06/25 07:47:35;;;;;;;;;;;19.70;99.90;;;;;;5065811;28;19991;-71
2022/06/25 07:52:46;;;;;;;;;;;19.90;99.90;;;;;;5065756;28;19923;-71
2022/06/25 07:55:14;;;;;;;;;;;20.10;99.90;;;;;;5065873;28;19979;-70
2022/06/25 07:57:42;;;;;;;;;;;20.20;99.90;;;;;;5065804;28;19959;-70
2022/06/25 08:00:09;;;;;;;;;;;20.20;99.90;;;;;;5065767;28;19932;-71
2022/06/25 08:02:38;;;;;;;;;;;20.20;99.90;;;;;;5065490;28;19921;-71
2022/06/25 08:05:05;;;;;;;;;;;20.30;99.90;;;;;;5065404;28;19928;-71
2022/06/25 08:07:32;;;;;;;;;;;20.30;99.90;;;;;;5065583;28;19920;-71
2022/06/25 08:09:58;;;;;;;;;;;20.40;99.90;;;;;;5065645;28;19963;-71
2022/06/25 08:12:26;;;;;;;;;;;20.40;99.90;;;;;;5065170;28;20267;-71
2022/06/25 08:14:53;;;;;;;;;;;20.50;99.90;;;;;;5065481;28;19952;-71
2022/06/25 08:17:20;;;;;;;;;;;20.60;99.90;;;;;;5065498;28;19921;-70
2022/06/25 08:19:47;;;;;;;;;;;20.70;99.90;;;;;;5065510;28;19920;-71
2022/06/25 08:22:13;;;;;;;;;;;20.80;99.90;;;;;;5065100;28;19988;-71
2022/06/25 08:24:40;;;;;;;;;;;20.70;99.90;;;;;;5065199;28;19967;-71
2022/06/25 08:27:07;;;;;;;;;;;20.70;99.90;;;;;;5065289;28;19987;-71
2022/06/25 08:29:35;;;;;;;;;;;20.70;99.90;;;;;;5087814;23;20031;-69
2022/06/25 08:32:01;;;;;;;;;;;20.70;99.90;;;;;;5085142;28;19956;-72
2022/06/25 08:34:28;;;;;;;;;;;20.90;99.90;;;;;;5085273;28;19951;-71
2022/06/25 08:36:55;;;;;;;;;;;21.00;99.90;;;;;;5085175;28;19945;-71
2022/06/25 08:39:21;;;;;;;;;;;21.00;99.90;;;;;;5085520;28;20115;-72
2022/06/25 08:41:48;;;;;;;;;;;21.00;99.90;;;;;;5083981;28;19920;-72
2022/06/25 08:44:15;;;;;;;;;;;20.90;99.90;;;;;;5084563;28;19951;-72
2022/06/25 08:46:43;;;;;;;;;;;21.00;99.90;;;;;;5084718;28;19924;-72
2022/06/25 08:49:10;;;;;;;;;;;21.00;99.90;;;;;;5085109;28;20116;-72
2022/06/25 08:51:38;;;;;;;;;;;21.20;99.90;;;;;;5084997;28;19927;-72
2022/06/25 08:54:07;;;;;;;;;;;21.30;99.90;;;;;;5084479;28;20207;-72
2022/06/25 08:56:34;;;;;;;;;;;21.30;99.90;;;;;;5084661;28;19991;-72
2022/06/25 08:59:01;;;;;;;;;;;21.30;99.90;;;;;;5084527;28;19992;-72
2022/06/25 09:01:27;;;;;;;;;;;21.20;99.90;;;;;;5084736;28;19920;-72
2022/06/25 09:03:55;;;;;;;;;;;21.20;99.90;;;;;;5084652;28;19920;-72
2022/06/25 09:06:22;;;;;;;;;;;21.30;99.90;;;;;;5084588;28;20174;-72
2022/06/25 09:09:04;;;;;;;;;;;21.30;99.90;;;;;;5084550;28;19924;-72
2022/06/25 09:11:30;;;;;;;;;;;21.40;99.90;;;;;;5084001;28;19928;-72
2022/06/25 09:13:59;;;;;;;;;;;21.50;99.90;;;;;;5084038;28;19992;-72
2022/06/25 09:16:26;;;;;;;;;;;21.70;99.90;;;;;;5084383;28;20179;-72
2022/06/25 09:18:53;;;;;;;;;;;21.90;99.90;;;;;;5084384;28;19973;-72
2022/06/25 09:21:21;;;;;;;;;;;22.00;99.90;;;;;;5084364;28;19952;-72
2022/06/25 09:23:56;;;;;;;;;;;22.10;99.90;;;;;;5083874;28;19993;-72
2022/06/25 09:26:22;;;;;;;;;;;22.20;99.90;;;;;;5083939;28;19951;-72
2022/06/25 09:28:49;;;;;;;;;;;22.30;99.90;;;;;;5084155;28;19920;-72
2022/06/25 09:31:33;;;;;;;;;;;22.30;99.90;;;;;;5084202;28;19927;-72
2022/06/25 09:34:02;;;;;;;;;;;22.40;99.90;;;;;;5083770;28;19955;-72
2022/06/25 09:36:30;;;;;;;;;;;22.40;99.90;;;;;;5083534;28;19927;-72
2022/06/25 09:38:57;;;;;;;;;;;22.30;99.90;;;;;;5084159;28;19952;-72
2022/06/25 09:41:24;;;;;;;;;;;22.40;99.90;;;;;;5083909;28;19952;-72
2022/06/25 09:43:51;;;;;;;;;;;22.40;99.90;;;;;;5083639;28;19967;-72
2022/06/25 09:46:18;;;;;;;;;;;22.50;99.90;;;;;;5083738;28;19950;-72
2022/06/25 09:48:45;;;;;;;;;;;22.70;99.90;;;;;;5083689;28;19959;-72
2022/06/25 09:51:13;;;;;;;;;;;22.80;99.90;;;;;;5083707;28;19928;-72
2022/06/25 09:53:47;;;;;;;;;;;22.90;99.90;;;;;;5082886;28;19952;-72
2022/06/25 09:56:14;;;;;;;;;;;23.10;99.90;;;;;;5083983;28;20280;-72
2022/06/25 09:58:42;;;;;;;;;;;23.30;99.90;;;;;;5083544;28;19959;-72
2022/06/25 10:01:09;;;;;;;;;;;23.20;99.90;;;;;;5083544;28;19951;-72
2022/06/25 10:03:37;;;;;;;;;;;23.10;99.90;;;;;;5083158;28;20111;-72
2022/06/25 10:06:04;;;;;;;;;;;23.10;99.90;;;;;;5083696;28;19928;-72
2022/06/25 10:08:31;;;;;;;;;;;23.00;99.90;;;;;;5083463;28;19952;-72
2022/06/25 10:10:59;;;;;;;;;;;22.80;99.90;;;;;;5083500;28;19920;-72
2022/06/25 10:13:26;;;;;;;;;;;22.70;99.90;;;;;;5083137;28;19959;-72
2022/06/25 10:15:53;;;;;;;;;;;22.70;99.90;;;;;;5083401;28;19987;-72
2022/06/25 10:18:20;;;;;;;;;;;22.70;99.90;;;;;;5082280;28;19966;-72
2022/06/25 10:20:47;;;;;;;;;;;22.90;99.90;;;;;;5083255;28;19951;-72
2022/06/25 10:23:14;;;;;;;;;;;23.10;99.90;;;;;;5083338;28;19920;-72
2022/06/25 10:25:43;;;;;;;;;;;23.20;99.90;;;;;;5082384;28;20460;-72
2022/06/25 10:28:12;;;;;;;;;;;23.50;99.90;;;;;;5083221;28;19920;-72
2022/06/25 10:30:43;;;;;;;;;;;23.70;99.90;;;;;;5083127;28;20104;-72
2022/06/25 10:33:10;;;;;;;;;;;24.00;99.90;;;;;;5083096;28;19952;-72
2022/06/25 10:35:39;;;;;;;;;;;24.20;99.90;;;;;;5083148;28;19987;-72
2022/06/25 10:38:06;;;;;;;;;;;24.50;99.90;;;;;;5082286;28;20212;-72
2022/06/25 10:40:34;;;;;;;;;;;24.50;99.90;;;;;;5082683;28;19987;-72
2022/06/25 10:43:23;;;;;;;;;;;24.50;99.90;;;;;;5082926;28;19920;-72
2022/06/25 10:45:51;;;;;;;;;;;24.40;99.90;;;;;;5082868;28;19944;-72
2022/06/25 10:48:19;;;;;;;;;;;24.40;99.90;;;;;;5083028;28;19920;-72
2022/06/25 10:50:49;;;;;;;;;;;24.30;99.90;;;;;;5083120;28;19952;-72
2022/06/25 10:53:17;;;;;;;;;;;24.50;99.90;;;;;;5082652;28;20242;-72
2022/06/25 10:55:58;;;;;;;;;;;24.70;99.90;;;;;;5082870;28;19966;-72
2022/06/25 10:58:25;;;;;;;;;;;24.90;99.90;;;;;;5083142;28;19921;-72
2022/06/25 11:00:54;;;;;;;;;;;25.20;99.90;;;;;;5083038;28;19991;-71
2022/06/25 11:03:42;;;;;;;;;;;25.30;99.90;;;;;;5082812;28;19920;-71
2022/06/25 11:06:20;;;;;;;;;;;25.50;99.90;;;;;;5086893;28;19925;-72
2022/06/25 11:08:47;;;;;;;;;;;25.60;99.90;;;;;;5086609;28;20018;-71
2022/06/25 11:11:14;;;;;;;;;;;25.30;99.90;;;;;;5086739;28;19920;-72
2022/06/25 11:13:41;;;;;;;;;;;25.10;99.90;;;;;;5086434;28;19927;-71
2022/06/25 11:16:15;;;;;;;;;;;25.00;99.90;;;;;;5086616;28;19924;-72
2022/06/25 11:18:49;;;;;;;;;;;24.80;99.90;;;;;;5086363;28;20275;-72
2022/06/25 11:21:29;;;;;;;;;;;24.70;99.90;;;;;;5086689;28;20166;-72
2022/06/25 11:24:10;;;;;;;;;;;24.70;99.90;;;;;;5086092;28;20242;-70
2022/06/25 11:29:22;;;;;;;;;;;25.10;99.90;;;;;;5086272;28;19924;-72
2022/06/25 11:31:51;;;;;;;;;;;25.40;99.90;;;;;;5086405;28;19921;-72
2022/06/25 11:34:19;;;;;;;;;;;25.70;99.90;;;;;;5086058;28;19924;-72
2022/06/25 11:36:46;;;;;;;;;;;26.10;99.90;;;;;;5085271;28;19926;-69
2022/06/25 11:39:15;;;;;;;;;;;26.40;99.90;;;;;;5086115;28;20122;-70
2022/06/25 11:41:42;;;;;;;;;;;26.70;99.90;;;;;;5085120;28;19927;-70
2022/06/25 11:44:09;;;;;;;;;;;26.80;99.90;;;;;;5086088;28;19955;-70
2022/06/25 11:46:36;;;;;;;;;;;26.90;99.90;;;;;;5086216;28;20188;-69
2022/06/25 11:49:05;;;;;;;;;;;27.00;99.90;;;;;;5085858;28;20254;-70
2022/06/25 11:51:32;;;;;;;;;;;27.20;99.90;;;;;;5085971;28;19975;-70
2022/06/25 11:54:04;;;;;;;;;;;27.20;99.90;;;;;;5085686;28;20215;-70
2022/06/25 11:56:31;;;;;;;;;;;27.40;99.90;;;;;;5085785;28;19920;-70
2022/06/25 11:58:57;;;;;;;;;;;27.70;99.90;;;;;;5085590;28;19988;-69
2022/06/25 12:01:27;;;;;;;;;;;27.90;99.90;;;;;;5085857;28;19920;-70
2022/06/25 12:03:54;;;;;;;;;;;28.10;99.90;;;;;;5085457;28;20283;-70
2022/06/25 12:06:22;;;;;;;;;;;28.40;99.90;;;;;;5085630;28;19952;-70
2022/06/25 12:08:49;;;;;;;;;;;28.50;99.90;;;;;;5085482;28;20093;-70
2022/06/25 12:11:16;;;;;;;;;;;28.50;99.90;;;;;;5085879;28;20171;-69
2022/06/25 12:13:43;;;;;;;;;;;28.40;99.90;;;;;;5085374;28;20249;-70
2022/06/25 12:16:10;;;;;;;;;;;28.10;99.90;;;;;;5084859;28;19920;-69
2022/06/25 12:18:37;;;;;;;;;;;27.90;99.90;;;;;;5085521;28;19920;-70
2022/06/25 12:21:05;;;;;;;;;;;27.60;99.90;;;;;;5085376;28;19920;-70
2022/06/25 12:23:46;;;;;;;;;;;27.40;99.90;;;;;;5085059;28;19921;-70
2022/06/25 12:26:23;;;;;;;;;;;27.20;99.90;;;;;;5084890;28;19959;-70
2022/06/25 12:28:49;;;;;;;;;;;27.10;99.90;;;;;;5085173;28;19920;-69
2022/06/25 12:31:17;;;;;;;;;;;27.10;99.90;;;;;;5085267;28;19927;-70
2022/06/25 12:33:48;;;;;;;;;;;27.20;99.90;;;;;;5084765;28;19956;-70
2022/06/25 12:36:18;;;;;;;;;;;27.20;99.90;;;;;;5084645;28;19951;-69
2022/06/25 12:38:45;;;;;;;;;;;27.10;99.90;;;;;;5085060;28;19967;-70
2022/06/25 12:41:12;;;;;;;;;;;27.20;99.90;;;;;;5084503;28;19987;-70
2022/06/25 12:43:46;;;;;;;;;;;27.50;99.90;;;;;;5084844;28;19927;-70
2022/06/25 12:46:13;;;;;;;;;;;27.80;99.90;;;;;;5084683;28;20181;-70
2022/06/25 12:48:40;;;;;;;;;;;28.10;99.90;;;;;;5084653;28;19983;-70
2022/06/25 12:51:08;;;;;;;;;;;28.40;99.90;;;;;;5084720;28;19928;-70
2022/06/25 12:53:34;;;;;;;;;;;28.70;99.90;;;;;;5084566;28;19927;-70
2022/06/25 12:56:02;;;;;;;;;;;29.10;99.90;;;;;;5084888;28;20127;-70
2022/06/25 12:58:33;;;;;;;;;;;29.40;99.90;;;;;;5084606;28;19942;-69
2022/06/25 13:01:01;;;;;;;;;;;29.40;97.90;;;;;;5084466;28;19962;-70
2022/06/25 13:03:28;;;;;;;;;;;29.30;98.30;;;;;;5084453;28;19962;-70
2022/06/25 13:05:54;;;;;;;;;;;29.10;98.00;;;;;;5084518;28;19921;-70
2022/06/25 13:08:21;;;;;;;;;;;28.90;98.50;;;;;;5084500;28;19920;-70
2022/06/25 13:10:48;;;;;;;;;;;29.00;98.90;;;;;;5084530;28;19962;-70
2022/06/25 13:13:14;;;;;;;;;;;29.20;96.90;;;;;;5084488;28;19920;-70
2022/06/25 13:15:41;;;;;;;;;;;29.30;97.50;;;;;;5084244;28;19939;-70
2022/06/25 13:18:09;;;;;;;;;;;29.40;97.40;;;;;;5084384;28;19973;-70
2022/06/25 13:20:36;;;;;;;;;;;29.60;97.00;;;;;;5084256;28;19963;-70
2022/06/25 13:23:03;;;;;;;;;;;29.40;96.40;;;;;;5083884;28;20219;-70
2022/06/25 13:25:30;;;;;;;;;;;29.30;96.70;;;;;;5084101;28;19920;-70
2022/06/25 13:27:56;;;;;;;;;;;29.00;96.20;;;;;;5082988;28;19921;-70
2022/06/25 13:30:23;;;;;;;;;;;28.60;96.20;;;;;;5083915;28;19931;-70
2022/06/25 13:32:50;;;;;;;;;;;28.40;96.40;;;;;;5083899;28;19963;-70
2022/06/25 13:35:18;;;;;;;;;;;28.10;96.70;;;;;;5084010;28;19927;-70
2022/06/25 13:37:47;;;;;;;;;;;27.90;96.70;;;;;;5082036;28;19920;-70
2022/06/25 13:40:13;;;;;;;;;;;27.70;97.30;;;;;;5083029;28;19927;-70
2022/06/25 13:42:40;;;;;;;;;;;27.70;97.40;;;;;;5083304;28;19983;-70
2022/06/25 13:45:07;;;;;;;;;;;27.60;96.80;;;;;;5083651;28;20182;-71
2022/06/25 13:47:36;;;;;;;;;;;27.70;97.30;;;;;;5083613;28;19974;-69
2022/06/25 13:50:02;;;;;;;;;;;27.80;97.50;;;;;;5083687;28;19920;-69
2022/06/25 13:52:30;;;;;;;;;;;27.80;97.60;;;;;;5083382;28;19928;-69
2022/06/25 13:54:57;;;;;;;;;;;27.70;96.80;;;;;;5084030;28;19955;-69
2022/06/25 13:57:25;;;;;;;;;;;27.70;97.10;;;;;;5083783;28;19928;-69
2022/06/25 13:59:51;;;;;;;;;;;27.70;96.80;;;;;;5083785;28;19987;-69
2022/06/25 14:02:18;;;;;;;;;;;27.70;97.40;;;;;;5083441;28;19928;-72
2022/06/25 14:04:44;;;;;;;;;;;27.70;98.30;;;;;;5083522;28;19921;-69
2022/06/25 14:07:11;;;;;;;;;;;27.70;96.40;;;;;;5083458;28;19920;-69
2022/06/25 14:09:39;;;;;;;;;;;27.70;96.80;;;;;;5083307;28;19928;-69
2022/06/25 14:12:06;;;;;;;;;;;28.00;97.90;;;;;;5083600;28;19966;-72
2022/06/25 14:14:33;;;;;;;;;;;28.70;97.50;;;;;;5083515;28;19952;-69
2022/06/25 14:17:00;;;;;;;;;;;29.30;95.90;;;;;;5083278;28;19920;-69
2022/06/25 14:19:26;;;;;;;;;;;29.80;95.60;;;;;;5083222;28;19987;-69
2022/06/25 14:21:53;;;;;;;;;;;30.10;95.10;;;;;;5083279;28;19948;-69
2022/06/25 14:27:02;;;;;;;;;;;30.50;94.10;;;;;;5082231;28;19920;-72
2022/06/25 14:29:28;;;;;;;;;;;30.80;93.00;;;;;;5095364;22;19924;-70
2022/06/25 14:31:56;;;;;;;;;;;31.00;93.00;;;;;;5083268;28;20207;-70
2022/06/25 14:34:23;;;;;;;;;;;30.90;92.60;;;;;;5083288;28;19966;-70